Time,TemperatureF,DewpointF,PressureIn,WindDirection,WindDirectionDegrees,WindSpeedMPH,WindSpeedGustMPH,Humidity,HourlyPrecipIn,Conditions,Clouds,dailyrainin,SoftwareType,DateUTC
2013-02-17 00:01:00,12.0,4.0,-100.00,SW,215,1.0,3.0,69,0.00,,,-99.99,,2013-02-17 07:01:00,
2013-02-17 00:11:00,11.0,4.0,-100.00,SW,225,0.0,3.0,70,0.00,,,-99.99,,2013-02-17 07:11:00,
2013-02-17 00:21:00,11.0,3.0,-100.00,South,190,1.0,4.0,71,0.00,,,-99.99,,2013-02-17 07:21:00,
2013-02-17 00:31:00,11.0,3.0,-100.00,SSW,205,0.0,4.0,71,0.00,,,-99.99,,2013-02-17 07:31:00,
2013-02-17 00:41:00,10.0,3.0,-100.00,WSW,240,0.0,3.0,71,0.00,,,-99.99,,2013-02-17 07:41:00,
2013-02-17 00:51:00,11.0,4.0,-100.00,SSW,205,0.0,4.0,71,0.00,,,-99.99,,2013-02-17 07:51:00,
2013-02-17 01:01:00,11.0,4.0,-100.00,West,265,2.0,4.0,71,0.00,,,-99.99,,2013-02-17 08:01:00,
2013-02-17 01:11:00,11.0,4.0,-100.00,West,265,3.0,6.0,71,0.00,,,-99.99,,2013-02-17 08:11:00,
2013-02-17 01:21:00,16.0,6.0,-100.00,West,275,2.0,5.0,65,0.00,,,-99.99,,2013-02-17 08:21:00,
2013-02-17 01:31:00,16.0,6.0,-100.00,NW,305,0.0,4.0,63,0.00,,,-99.99,,2013-02-17 08:31:00,
2013-02-17 01:42:00,13.0,3.0,-100.00,SW,215,0.0,4.0,63,0.00,,,-99.99,,2013-02-17 08:42:00,
2013-02-17 01:52:00,11.0,2.0,-100.00,West,265,2.0,3.0,67,0.00,,,-99.99,,2013-02-17 08:52:00,
2013-02-17 02:01:00,11.0,2.0,-100.00,West,280,2.0,4.0,67,0.00,,,-99.99,,2013-02-17 09:01:00,
2013-02-17 02:11:00,10.0,2.0,-100.00,WNW,285,0.0,3.0,69,0.00,,,-99.99,,2013-02-17 09:11:00,
2013-02-17 02:21:00,9.0,2.0,-100.00,South,185,0.0,1.0,70,0.00,,,-99.99,,2013-02-17 09:21:00,
2013-02-17 02:31:00,9.0,2.0,-100.00,South,180,0.0,1.0,71,0.00,,,-99.99,,2013-02-17 09:31:00,
2013-02-17 02:41:00,9.0,2.0,-100.00,West,280,0.0,0.0,71,0.00,,,-99.99,,2013-02-17 09:41:00,
2013-02-17 02:51:00,9.0,2.0,-100.00,South,185,0.0,1.0,71,0.00,,,-99.99,,2013-02-17 09:51:00,
2013-02-17 03:01:00,9.0,2.0,-100.00,SSW,200,0.0,2.0,71,0.00,,,-99.99,,2013-02-17 10:01:00,
2013-02-17 03:11:00,9.0,1.0,-100.00,West,260,2.0,4.0,71,0.00,,,-99.99,,2013-02-17 10:11:00,
2013-02-17 03:21:00,9.0,1.0,-100.00,WNW,285,1.0,3.0,71,0.00,,,-99.99,,2013-02-17 10:21:00,
2013-02-17 03:31:00,10.0,2.0,-100.00,WSW,245,2.0,6.0,70,0.00,,,-99.99,,2013-02-17 10:31:00,
2013-02-17 03:41:00,10.0,2.0,-100.00,SW,230,2.0,4.0,70,0.00,,,-99.99,,2013-02-17 10:41:00,
2013-02-17 03:52:00,14.0,5.0,-100.00,West,265,3.0,8.0,67,0.00,,,-99.99,,2013-02-17 10:52:00,
2013-02-17 04:01:00,15.0,5.0,-100.00,WSW,245,3.0,7.0,65,0.00,,,-99.99,,2013-02-17 11:01:00,
2013-02-17 04:11:00,16.0,6.0,-100.00,WSW,245,4.0,6.0,64,0.00,,,-99.99,,2013-02-17 11:11:00,
2013-02-17 04:21:00,17.0,6.0,-100.00,WSW,250,3.0,9.0,61,0.00,,,-99.99,,2013-02-17 11:21:00,
2013-02-17 04:32:00,18.0,6.0,-100.00,West,270,4.0,8.0,59,0.00,,,-99.99,,2013-02-17 11:32:00,
2013-02-17 04:42:00,18.0,6.0,-100.00,SW,235,4.0,8.0,58,0.00,,,-99.99,,2013-02-17 11:42:00,
2013-02-17 04:52:00,20.0,6.0,-100.00,WSW,240,4.0,8.0,53,0.00,,,-99.99,,2013-02-17 11:52:00,
2013-02-17 05:03:00,20.0,6.0,-100.00,West,270,3.0,12.0,53,0.00,,,-99.99,,2013-02-17 12:03:00,
2013-02-17 05:11:00,19.0,5.0,-100.00,WNW,285,3.0,7.0,53,0.00,,,-99.99,,2013-02-17 12:11:00,
2013-02-17 05:22:00,19.0,5.0,-100.00,West,275,4.0,7.0,52,0.00,,,-99.99,,2013-02-17 12:22:00,
2013-02-17 05:32:00,20.0,5.0,-100.00,WSW,250,5.0,9.0,50,0.00,,,-99.99,,2013-02-17 12:32:00,
2013-02-17 05:42:00,21.0,4.0,-100.00,WSW,245,3.0,10.0,48,0.00,,,-99.99,,2013-02-17 12:42:00,
2013-02-17 05:52:00,19.0,3.0,-100.00,SW,225,4.0,7.0,49,0.00,,,-99.99,,2013-02-17 12:52:00,
2013-02-17 06:02:00,19.0,3.0,-100.00,West,270,4.0,9.0,49,0.00,,,-99.99,,2013-02-17 13:02:00,
2013-02-17 06:12:00,19.0,3.0,-100.00,WSW,245,4.0,8.0,49,0.00,,,-99.99,,2013-02-17 13:12:00,
2013-02-17 06:22:00,19.0,3.0,-100.00,WNW,285,6.0,11.0,48,0.00,,,-99.99,,2013-02-17 13:22:00,
2013-02-17 06:32:00,19.0,3.0,-100.00,WSW,245,5.0,11.0,48,0.00,,,-99.99,,2013-02-17 13:32:00,
2013-02-17 06:41:00,19.0,2.0,-100.00,West,265,6.0,10.0,47,0.00,,,-99.99,,2013-02-17 13:41:00,
2013-02-17 06:51:00,18.0,2.0,-100.00,WSW,245,7.0,10.0,48,0.00,,,-99.99,,2013-02-17 13:51:00,
2013-02-17 07:01:00,19.0,2.0,-100.00,WSW,255,6.0,11.0,47,0.00,,,-99.99,,2013-02-17 14:01:00,
2013-02-17 07:11:00,19.0,2.0,-100.00,West,260,7.0,12.0,46,0.00,,,-99.99,,2013-02-17 14:11:00,
2013-02-17 07:21:00,20.0,1.0,-100.00,West,270,9.0,12.0,44,0.00,,,-99.99,,2013-02-17 14:21:00,
2013-02-17 07:32:00,20.0,1.0,-100.00,West,270,8.0,13.0,43,0.00,,,-99.99,,2013-02-17 14:32:00,
2013-02-17 07:42:00,21.0,1.0,-100.00,West,265,9.0,12.0,41,0.00,,,-99.99,,2013-02-17 14:42:00,
2013-02-17 07:52:00,23.0,1.0,-100.00,WSW,240,9.0,14.0,38,0.00,,,-99.99,,2013-02-17 14:52:00,
2013-02-17 08:02:00,24.0,1.0,-100.00,SW,230,7.0,12.0,37,0.00,,,-99.99,,2013-02-17 15:02:00,
2013-02-17 08:11:00,26.0,2.0,-100.00,SW,230,8.0,13.0,34,0.00,,,-99.99,,2013-02-17 15:11:00,
2013-02-17 08:21:00,26.0,1.0,-100.00,SW,225,8.0,14.0,33,0.00,,,-99.99,,2013-02-17 15:21:00,
2013-02-17 08:32:00,28.0,2.0,-100.00,SW,225,9.0,12.0,32,0.00,,,-99.99,,2013-02-17 15:32:00,
2013-02-17 08:41:00,28.0,2.0,-100.00,SW,215,6.0,14.0,31,0.00,,,-99.99,,2013-02-17 15:41:00,
2013-02-17 08:52:00,28.0,1.0,-100.00,SW,215,9.0,14.0,30,0.00,,,-99.99,,2013-02-17 15:52:00,
2013-02-17 09:01:00,28.0,1.0,-100.00,SW,225,10.0,14.0,30,0.00,,,-99.99,,2013-02-17 16:01:00,
2013-02-17 09:11:00,28.0,0.0,-100.00,SW,220,11.0,17.0,29,0.00,,,-99.99,,2013-02-17 16:11:00,
2013-02-17 09:21:00,29.0,1.0,-100.00,SSW,210,6.0,16.0,29,0.00,,,-99.99,,2013-02-17 16:21:00,
2013-02-17 09:32:00,29.0,1.0,-100.00,SW,220,9.0,15.0,28,0.00,,,-99.99,,2013-02-17 16:32:00,
2013-02-17 09:42:00,29.0,1.0,-100.00,SW,225,8.0,14.0,28,0.00,,,-99.99,,2013-02-17 16:42:00,
2013-02-17 09:51:00,31.0,1.0,-100.00,SSW,205,7.0,13.0,27,0.00,,,-99.99,,2013-02-17 16:51:00,
2013-02-17 10:02:00,31.0,1.0,-100.00,SSW,210,8.0,12.0,27,0.00,,,-99.99,,2013-02-17 17:02:00,
2013-02-17 10:11:00,31.0,1.0,-100.00,SSW,195,6.0,18.0,27,0.00,,,-99.99,,2013-02-17 17:11:00,
2013-02-17 10:21:00,32.0,2.0,-100.00,SSW,210,6.0,17.0,27,0.00,,,-99.99,,2013-02-17 17:21:00,
2013-02-17 10:32:00,32.0,2.0,-100.00,SSW,210,6.0,17.0,27,0.00,,,-99.99,,2013-02-17 17:32:00,
2013-02-17 10:42:00,33.0,2.0,-100.00,SSE,150,6.0,14.0,26,0.00,,,-99.99,,2013-02-17 17:42:00,
2013-02-17 10:52:00,33.0,3.0,-100.00,SSW,210,5.0,12.0,26,0.00,,,-99.99,,2013-02-17 17:52:00,
2013-02-17 11:02:00,33.0,3.0,-100.00,South,185,3.0,13.0,27,0.00,,,-99.99,,2013-02-17 18:02:00,
2013-02-17 11:11:00,33.0,2.0,-100.00,South,170,4.0,14.0,26,0.00,,,-99.99,,2013-02-17 18:11:00,
2013-02-17 11:22:00,35.0,4.0,-100.00,SE,140,5.0,12.0,26,0.00,,,-99.99,,2013-02-17 18:22:00,
2013-02-17 11:33:00,35.0,4.0,-100.00,SE,140,4.0,14.0,26,0.00,,,-99.99,,2013-02-17 18:33:00,
2013-02-17 11:42:00,36.0,5.0,-100.00,SW,215,6.0,11.0,26,0.00,,,-99.99,,2013-02-17 18:42:00,
2013-02-17 11:52:00,33.0,1.0,-100.00,SW,225,8.0,24.0,25,0.00,,,-99.99,,2013-02-17 18:52:00,
2013-02-17 12:01:00,33.0,1.0,-100.00,SW,215,13.0,24.0,24,0.00,,,-99.99,,2013-02-17 19:01:00,
2013-02-17 12:11:00,35.0,2.0,-100.00,SSW,200,9.0,21.0,24,0.00,,,-99.99,,2013-02-17 19:11:00,
2013-02-17 12:21:00,34.0,2.0,-100.00,SW,230,7.0,19.0,24,0.00,,,-99.99,,2013-02-17 19:21:00,
2013-02-17 12:32:00,34.0,2.0,-100.00,SW,220,11.0,19.0,24,0.00,,,-99.99,,2013-02-17 19:32:00,
2013-02-17 12:42:00,36.0,3.0,-100.00,SSW,205,6.0,15.0,24,0.00,,,-99.99,,2013-02-17 19:42:00,
2013-02-17 12:51:00,38.0,4.0,-100.00,South,180,7.0,17.0,23,0.00,,,-99.99,,2013-02-17 19:51:00,
2013-02-17 13:02:00,39.0,5.0,-100.00,SSE,155,6.0,16.0,23,0.00,,,-99.99,,2013-02-17 20:02:00,
2013-02-17 13:11:00,36.0,2.0,-100.00,South,185,7.0,19.0,23,0.00,,,-99.99,,2013-02-17 20:11:00,
2013-02-17 13:21:00,32.0,-1.0,-100.00,SSW,195,4.0,17.0,23,0.00,,,-99.99,,2013-02-17 20:21:00,
2013-02-17 13:32:00,32.0,-1.0,-100.00,SSE,165,9.0,15.0,23,0.00,,,-99.99,,2013-02-17 20:32:00,
2013-02-17 13:42:00,34.0,1.0,-100.00,SW,235,9.0,20.0,24,0.00,,,-99.99,,2013-02-17 20:42:00,
2013-02-17 13:52:00,30.0,-2.0,-100.00,SW,220,11.0,21.0,24,0.00,,,-99.99,,2013-02-17 20:52:00,
2013-02-17 14:02:00,29.0,-2.0,-100.00,SW,215,10.0,29.0,24,0.00,,,-99.99,,2013-02-17 21:02:00,
2013-02-17 14:11:00,29.0,-2.0,-100.00,SW,220,11.0,21.0,25,0.00,,,-99.99,,2013-02-17 21:11:00,
2013-02-17 14:21:00,29.0,-1.0,-100.00,SW,220,12.0,17.0,26,0.00,,,-99.99,,2013-02-17 21:21:00,
2013-02-17 14:32:00,29.0,0.0,-100.00,SW,220,6.0,22.0,28,0.00,,,-99.99,,2013-02-17 21:32:00,
2013-02-17 14:42:00,29.0,1.0,-100.00,SSW,210,9.0,12.0,28,0.00,,,-99.99,,2013-02-17 21:42:00,
2013-02-17 14:52:00,28.0,1.0,-100.00,SW,225,12.0,18.0,30,0.00,,,-99.99,,2013-02-17 21:52:00,
2013-02-17 15:01:00,29.0,3.0,-100.00,SW,220,6.0,14.0,31,0.00,,,-99.99,,2013-02-17 22:01:00,
2013-02-17 15:12:00,29.0,3.0,-100.00,SW,215,10.0,17.0,32,0.00,,,-99.99,,2013-02-17 22:12:00,
2013-02-17 15:22:00,28.0,3.0,-100.00,SW,220,11.0,19.0,32,0.00,,,-99.99,,2013-02-17 22:22:00,
2013-02-17 15:32:00,29.0,4.0,-100.00,SW,220,8.0,18.0,33,0.00,,,-99.99,,2013-02-17 22:32:00,
2013-02-17 15:42:00,28.0,4.0,-100.00,South,190,6.0,11.0,34,0.00,,,-99.99,,2013-02-17 22:42:00,
2013-02-17 15:52:00,28.0,3.0,-100.00,SW,220,7.0,18.0,34,0.00,,,-99.99,,2013-02-17 22:52:00,
2013-02-17 16:02:00,28.0,3.0,-100.00,SSW,195,7.0,14.0,34,0.00,,,-99.99,,2013-02-17 23:02:00,
2013-02-17 16:11:00,28.0,4.0,-100.00,SSW,200,6.0,16.0,35,0.00,,,-99.99,,2013-02-17 23:11:00,
2013-02-17 16:21:00,28.0,4.0,-100.00,SSW,210,11.0,19.0,35,0.00,,,-99.99,,2013-02-17 23:21:00,
2013-02-17 16:32:00,27.0,4.0,-100.00,SW,225,7.0,14.0,36,0.00,,,-99.99,,2013-02-17 23:32:00,
2013-02-17 16:42:00,27.0,4.0,-100.00,SW,215,8.0,16.0,36,0.00,,,-99.99,,2013-02-17 23:42:00,
2013-02-17 16:52:00,27.0,4.0,-100.00,South,170,4.0,16.0,37,0.00,,,-99.99,,2013-02-17 23:52:00,
2013-02-17 17:01:00,27.0,4.0,-100.00,SW,225,9.0,14.0,37,0.00,,,-99.99,,2013-02-18 00:01:00,
2013-02-17 17:11:00,26.0,4.0,-100.00,SW,215,6.0,14.0,37,0.00,,,-99.99,,2013-02-18 00:11:00,
2013-02-17 17:22:00,26.0,4.0,-100.00,SW,215,8.0,15.0,38,0.00,,,-99.99,,2013-02-18 00:22:00,
2013-02-17 17:32:00,26.0,4.0,-100.00,SW,230,5.0,15.0,38,0.00,,,-99.99,,2013-02-18 00:32:00,
2013-02-17 17:41:00,26.0,3.0,-100.00,SSW,210,4.0,11.0,37,0.00,,,-99.99,,2013-02-18 00:41:00,
2013-02-17 17:52:00,25.0,3.0,-100.00,South,190,5.0,14.0,37,0.00,,,-99.99,,2013-02-18 00:52:00,
2013-02-17 18:01:00,25.0,2.0,-100.00,SW,225,4.0,14.0,37,0.00,,,-99.99,,2013-02-18 01:01:00,
2013-02-17 18:12:00,24.0,2.0,-100.00,SSW,205,4.0,7.0,38,0.00,,,-99.99,,2013-02-18 01:12:00,
2013-02-17 18:21:00,23.0,2.0,-100.00,SW,215,7.0,9.0,39,0.00,,,-99.99,,2013-02-18 01:21:00,
2013-02-17 18:31:00,24.0,3.0,-100.00,SW,215,10.0,15.0,40,0.00,,,-99.99,,2013-02-18 01:31:00,
2013-02-17 18:41:00,24.0,3.0,-100.00,SW,225,8.0,19.0,40,0.00,,,-99.99,,2013-02-18 01:41:00,
2013-02-17 18:52:00,23.0,3.0,-100.00,SW,215,9.0,12.0,41,0.00,,,-99.99,,2013-02-18 01:52:00,
2013-02-17 19:01:00,23.0,3.0,-100.00,SW,225,9.0,14.0,41,0.00,,,-99.99,,2013-02-18 02:01:00,
2013-02-17 19:11:00,22.0,3.0,-100.00,SW,215,6.0,11.0,42,0.00,,,-99.99,,2013-02-18 02:11:00,
2013-02-17 19:21:00,22.0,4.0,-100.00,SW,215,7.0,11.0,43,0.00,,,-99.99,,2013-02-18 02:21:00,
2013-02-17 19:32:00,23.0,4.0,-100.00,SSW,210,6.0,11.0,44,0.00,,,-99.99,,2013-02-18 02:32:00,
2013-02-17 19:41:00,23.0,5.0,-100.00,SW,230,6.0,13.0,44,0.00,,,-99.99,,2013-02-18 02:41:00,
2013-02-17 19:52:00,23.0,5.0,-100.00,SW,220,7.0,12.0,44,0.00,,,-99.99,,2013-02-18 02:52:00,
2013-02-17 20:01:00,24.0,5.0,-100.00,SW,225,7.0,15.0,45,0.00,,,-99.99,,2013-02-18 03:01:00,
2013-02-17 20:11:00,23.0,6.0,-100.00,SSW,210,7.0,11.0,46,0.00,,,-99.99,,2013-02-18 03:11:00,
2013-02-17 20:21:00,24.0,6.0,-100.00,SSW,210,9.0,19.0,46,0.00,,,-99.99,,2013-02-18 03:21:00,
2013-02-17 20:32:00,24.0,6.0,-100.00,South,185,8.0,12.0,46,0.00,,,-99.99,,2013-02-18 03:32:00,
2013-02-17 20:42:00,24.0,6.0,-100.00,SW,215,9.0,13.0,46,0.00,,,-99.99,,2013-02-18 03:42:00,
2013-02-17 20:51:00,24.0,6.0,-100.00,SW,220,11.0,20.0,46,0.00,,,-99.99,,2013-02-18 03:51:00,
2013-02-17 21:01:00,24.0,6.0,-100.00,SSW,210,9.0,21.0,46,0.00,,,-99.99,,2013-02-18 04:01:00,
2013-02-17 21:11:00,24.0,6.0,-100.00,SW,220,11.0,18.0,46,0.00,,,-99.99,,2013-02-18 04:11:00,
2013-02-17 21:21:00,22.0,5.0,-100.00,SW,215,4.0,11.0,46,0.00,,,-99.99,,2013-02-18 04:21:00,
2013-02-17 21:32:00,22.0,5.0,-100.00,SSW,210,7.0,14.0,46,0.00,,,-99.99,,2013-02-18 04:32:00,
2013-02-17 21:41:00,22.0,5.0,-100.00,SW,215,6.0,13.0,46,0.00,,,-99.99,,2013-02-18 04:41:00,
2013-02-17 21:51:00,21.0,4.0,-100.00,SW,220,8.0,12.0,47,0.00,,,-99.99,,2013-02-18 04:51:00,
2013-02-17 22:02:00,21.0,4.0,-100.00,SW,215,11.0,16.0,46,0.00,,,-99.99,,2013-02-18 05:02:00,
2013-02-17 22:11:00,21.0,4.0,-100.00,SW,220,11.0,14.0,46,0.00,,,-99.99,,2013-02-18 05:11:00,
2013-02-17 22:21:00,21.0,4.0,-100.00,SW,220,9.0,16.0,46,0.00,,,-99.99,,2013-02-18 05:21:00,
2013-02-17 22:31:00,21.0,3.0,-100.00,SW,225,8.0,16.0,46,0.00,,,-99.99,,2013-02-18 05:31:00,
2013-02-17 22:41:00,20.0,3.0,-100.00,SSW,210,7.0,12.0,46,0.00,,,-99.99,,2013-02-18 05:41:00,
2013-02-17 22:52:00,19.0,2.0,-100.00,SW,230,7.0,10.0,46,0.00,,,-99.99,,2013-02-18 05:52:00,
2013-02-17 23:02:00,19.0,2.0,-100.00,SW,215,6.0,10.0,47,0.00,,,-99.99,,2013-02-18 06:02:00,
2013-02-17 23:11:00,19.0,2.0,-100.00,SW,225,6.0,12.0,47,0.00,,,-99.99,,2013-02-18 06:11:00,
2013-02-17 23:21:00,20.0,3.0,-100.00,SW,225,8.0,16.0,47,0.00,,,-99.99,,2013-02-18 06:21:00,
2013-02-17 23:32:00,19.0,3.0,-100.00,SW,220,6.0,13.0,48,0.00,,,-99.99,,2013-02-18 06:32:00,
2013-02-17 23:42:00,19.0,3.0,-100.00,SW,225,7.0,11.0,48,0.00,,,-99.99,,2013-02-18 06:42:00,
2013-02-17 23:51:00,19.0,4.0,-100.00,SW,220,9.0,19.0,49,0.00,,,-99.99,,2013-02-18 06:51:00,